sensor_id;sensor_type;location;lat;lon;timestamp;temperature;humidity
30889;DHT22;51092;50.874;7.024;2023-11-21T00:00:47;9.20;99.90
30889;DHT22;51092;50.874;7.024;2023-11-21T00:01:48;9.10;99.90
30889;DHT22;51092;50.874;7.024;2023-11-21T00:02:51;9.10;99.90
30889;DHT22;51092;50.874;7.024;2023-11-21T00:03:52;9.10;99.90
30889;DHT22;51092;50.874;7.024;2023-11-21T00:04:55;9.00;99.90
30889;DHT22;51092;50.874;7.024;2023-11-21T00:05:57;9.00;99.90
30889;DHT22;51092;50.874;7.024;2023-11-21T00:06:58;9.00;99.90
30889;DHT22;51092;50.874;7.024;2023-11-21T00:08:01;8.90;99.90
30889;DHT22;51092;50.874;7.024;2023-11-21T00:09:04;8.90;99.90
30889;DHT22;51092;50.874;7.024;2023-11-21T00:10:07;8.90;99.90
30889;DHT22;51092;50.874;7.024;2023-11-21T00:11:09;8.90;99.90
30889;DHT22;51092;50.874;7.024;2023-11-21T00:12:11;8.90;99.90
30889;DHT22;51092;50.874;7.024;2023-11-21T00:13:15;8.90;99.90
30889;DHT22;51092;50.874;7.024;2023-11-21T00:14:19;8.90;99.90
30889;DHT22;51092;50.874;7.024;2023-11-21T00:15:20;8.90;99.90
30889;DHT22;51092;50.874;7.024;2023-11-21T00:16:23;8.90;99.90
30889;DHT22;51092;50.874;7.024;2023-11-21T00:17:26;8.90;99.90
30889;DHT22;51092;50.874;7.024;2023-11-21T00:18:28;8.80;99.90
30889;DHT22;51092;50.874;7.024;2023-11-21T00:19:30;8.80;99.90
30889;DHT22;51092;50.874;7.024;2023-11-21T00:20:31;8.80;99.90
30889;DHT22;51092;50.874;7.024;2023-11-21T00:21:34;8.80;99.90
30889;DHT22;51092;50.874;7.024;2023-11-21T00:22:35;8.80;99.90
30889;DHT22;51092;50.874;7.024;2023-11-21T00:23:38;8.80;99.90
30889;DHT22;51092;50.874;7.024;2023-11-21T00:24:41;8.80;99.90
30889;DHT22;51092;50.874;7.024;2023-11-21T00:25:43;8.80;99.90
30889;DHT22;51092;50.874;7.024;2023-11-21T00:26:45;8.80;99.90
30889;DHT22;51092;50.874;7.024;2023-11-21T00:27:49;8.80;99.90
30889;DHT22;51092;50.874;7.024;2023-11-21T00:28:51;8.80;99.90
30889;DHT22;51092;50.874;7.024;2023-11-21T00:29:53;8.70;99.90
30889;DHT22;51092;50.874;7.024;2023-11-21T00:30:54;8.80;99.90
30889;DHT22;51092;50.874;7.024;2023-11-21T00:31:57;8.80;99.90
30889;DHT22;51092;50.874;7.024;2023-11-21T00:32:59;8.80;99.90
30889;DHT22;51092;50.874;7.024;2023-11-21T00:34:00;8.80;99.90
30889;DHT22;51092;50.874;7.024;2023-11-21T00:35:03;8.80;99.90
30889;DHT22;51092;50.874;7.024;2023-11-21T00:36:06;8.70;99.90
30889;DHT22;51092;50.874;7.024;2023-11-21T00:37:10;8.80;99.90
30889;DHT22;51092;50.874;7.024;2023-11-21T00:38:12;8.70;99.90
30889;DHT22;51092;50.874;7.024;2023-11-21T00:39:14;8.80;99.90
30889;DHT22;51092;50.874;7.024;2023-11-21T00:40:18;8.80;99.90
30889;DHT22;51092;50.874;7.024;2023-11-21T00:41:22;8.80;99.90
30889;DHT22;51092;50.874;7.024;2023-11-21T00:42:23;8.70;99.90
30889;DHT22;51092;50.874;7.024;2023-11-21T00:43:26;8.70;99.90
30889;DHT22;51092;50.874;7.024;2023-11-21T00:44:27;8.70;99.90
30889;DHT22;51092;50.874;7.024;2023-11-21T00:45:29;8.80;99.90
30889;DHT22;51092;50.874;7.024;2023-11-21T00:46:31;8.70;99.90
30889;DHT22;51092;50.874;7.024;2023-11-21T00:47:33;8.80;99.90
30889;DHT22;51092;50.874;7.024;2023-11-21T00:48:35;8.80;99.90
30889;DHT22;51092;50.874;7.024;2023-11-21T00:49:37;8.70;99.90
30889;DHT22;51092;50.874;7.024;2023-11-21T00:50:40;8.80;99.90
30889;DHT22;51092;50.874;7.024;2023-11-21T00:51:43;8.70;99.90
30889;DHT22;51092;50.874;7.024;2023-11-21T00:52:44;8.80;99.90
30889;DHT22;51092;50.874;7.024;2023-11-21T00:53:47;8.80;99.90
30889;DHT22;51092;50.874;7.024;2023-11-21T00:54:48;8.70;99.90
30889;DHT22;51092;50.874;7.024;2023-11-21T00:55:52;8.70;99.90
30889;DHT22;51092;50.874;7.024;2023-11-21T00:56:58;8.70;99.90
30889;DHT22;51092;50.874;7.024;2023-11-21T00:57:59;8.70;99.90
30889;DHT22;51092;50.874;7.024;2023-11-21T00:59:04;8.70;99.90
30889;DHT22;51092;50.874;7.024;2023-11-21T01:00:07;8.70;99.90
30889;DHT22;51092;50.874;7.024;2023-11-21T01:01:14;8.70;99.90
30889;DHT22;51092;50.874;7.024;2023-11-21T01:02:16;8.70;99.90
30889;DHT22;51092;50.874;7.024;2023-11-21T01:03:18;8.70;99.90
30889;DHT22;51092;50.874;7.024;2023-11-21T01:04:20;8.70;99.90
30889;DHT22;51092;50.874;7.024;2023-11-21T01:05:22;8.70;99.90
30889;DHT22;51092;50.874;7.024;2023-11-21T01:06:24;8.70;99.90
30889;DHT22;51092;50.874;7.024;2023-11-21T01:07:26;8.70;99.90
30889;DHT22;51092;50.874;7.024;2023-11-21T01:08:28;8.70;99.90
30889;DHT22;51092;50.874;7.024;2023-11-21T01:09:30;8.70;99.90
30889;DHT22;51092;50.874;7.024;2023-11-21T01:10:32;8.70;99.90
30889;DHT22;51092;50.874;7.024;2023-11-21T01:11:36;8.70;99.90
30889;DHT22;51092;50.874;7.024;2023-11-21T01:12:40;8.70;99.90
30889;DHT22;51092;50.874;7.024;2023-11-21T01:13:42;8.70;99.90
30889;DHT22;51092;50.874;7.024;2023-11-21T01:14:46;8.70;99.90
30889;DHT22;51092;50.874;7.024;2023-11-21T01:15:47;8.70;99.90
30889;DHT22;51092;50.874;7.024;2023-11-21T01:16:50;8.70;99.90
30889;DHT22;51092;50.874;7.024;2023-11-21T01:17:51;8.70;99.90
30889;DHT22;51092;50.874;7.024;2023-11-21T01:18:54;8.70;99.90
30889;DHT22;51092;50.874;7.024;2023-11-21T01:19:55;8.70;99.90
30889;DHT22;51092;50.874;7.024;2023-11-21T01:20:58;8.70;99.90
30889;DHT22;51092;50.874;7.024;2023-11-21T01:22:01;8.70;99.90
30889;DHT22;51092;50.874;7.024;2023-11-21T01:23:05;8.80;99.90
30889;DHT22;51092;50.874;7.024;2023-11-21T01:24:07;8.70;99.90
30889;DHT22;51092;50.874;7.024;2023-11-21T01:25:09;8.70;99.90
30889;DHT22;51092;50.874;7.024;2023-11-21T01:26:11;8.70;99.90
30889;DHT22;51092;50.874;7.024;2023-11-21T01:27:14;8.70;99.90
30889;DHT22;51092;50.874;7.024;2023-11-21T01:28:16;8.70;99.90
30889;DHT22;51092;50.874;7.024;2023-11-21T01:29:18;8.60;99.90
30889;DHT22;51092;50.874;7.024;2023-11-21T01:30:21;8.60;99.90
30889;DHT22;51092;50.874;7.024;2023-11-21T01:31:23;8.60;99.90
30889;DHT22;51092;50.874;7.024;2023-11-21T01:32:25;8.60;99.90
30889;DHT22;51092;50.874;7.024;2023-11-21T01:33:26;8.60;99.90
30889;DHT22;51092;50.874;7.024;2023-11-21T01:34:28;8.60;99.90
30889;DHT22;51092;50.874;7.024;2023-11-21T01:35:30;8.60;99.90
30889;DHT22;51092;50.874;7.024;2023-11-21T01:36:32;8.60;99.90
30889;DHT22;51092;50.874;7.024;2023-11-21T01:37:34;8.60;99.90
30889;DHT22;51092;50.874;7.024;2023-11-21T01:38:36;8.60;99.90
30889;DHT22;51092;50.874;7.024;2023-11-21T01:39:38;8.60;99.90
30889;DHT22;51092;50.874;7.024;2023-11-21T01:40:40;8.60;99.90
30889;DHT22;51092;50.874;7.024;2023-11-21T01:41:42;8.60;99.90
30889;DHT22;51092;50.874;7.024;2023-11-21T01:42:46;8.60;99.90
30889;DHT22;51092;50.874;7.024;2023-11-21T01:43:49;8.60;99.90
30889;DHT22;51092;50.874;7.024;2023-11-21T01:44:52;8.60;99.90
30889;DHT22;51092;50.874;7.024;2023-11-21T01:45:56;8.60;99.90
30889;DHT22;51092;50.874;7.024;2023-11-21T01:46:59;8.60;99.90
30889;DHT22;51092;50.874;7.024;2023-11-21T01:48:06;8.60;99.90
30889;DHT22;51092;50.874;7.024;2023-11-21T01:49:08;8.60;99.90
30889;DHT22;51092;50.874;7.024;2023-11-21T01:50:15;8.60;99.90
30889;DHT22;51092;50.874;7.024;2023-11-21T01:51:18;8.60;99.90
30889;DHT22;51092;50.874;7.024;2023-11-21T01:52:20;8.60;99.90
30889;DHT22;51092;50.874;7.024;2023-11-21T01:53:24;8.60;99.90
30889;DHT22;51092;50.874;7.024;2023-11-21T01:54:26;8.60;99.90
30889;DHT22;51092;50.874;7.024;2023-11-21T01:55:33;8.60;99.90
30889;DHT22;51092;50.874;7.024;2023-11-21T01:56:35;8.60;99.90
30889;DHT22;51092;50.874;7.024;2023-11-21T01:57:38;8.60;99.90
30889;DHT22;51092;50.874;7.024;2023-11-21T01:58:41;8.60;99.90
30889;DHT22;51092;50.874;7.024;2023-11-21T01:59:44;8.60;99.90
30889;DHT22;51092;50.874;7.024;2023-11-21T02:00:47;8.60;99.90
30889;DHT22;51092;50.874;7.024;2023-11-21T02:01:51;8.60;99.90
30889;DHT22;51092;50.874;7.024;2023-11-21T02:02:53;8.60;99.90
30889;DHT22;51092;50.874;7.024;2023-11-21T02:03:54;8.60;99.90
30889;DHT22;51092;50.874;7.024;2023-11-21T02:04:57;8.60;99.90
30889;DHT22;51092;50.874;7.024;2023-11-21T02:05:58;8.60;99.90
30889;DHT22;51092;50.874;7.024;2023-11-21T02:07:00;8.60;99.90
30889;DHT22;51092;50.874;7.024;2023-11-21T02:08:03;8.60;99.90
30889;DHT22;51092;50.874;7.024;2023-11-21T02:09:05;8.60;99.90
30889;DHT22;51092;50.874;7.024;2023-11-21T02:10:08;8.60;99.90
30889;DHT22;51092;50.874;7.024;2023-11-21T02:11:09;8.70;99.90
30889;DHT22;51092;50.874;7.024;2023-11-21T02:12:14;8.70;99.90
30889;DHT22;51092;50.874;7.024;2023-11-21T02:13:16;8.60;99.90
30889;DHT22;51092;50.874;7.024;2023-11-21T02:14:19;8.60;99.90
30889;DHT22;51092;50.874;7.024;2023-11-21T02:15:24;8.60;99.90
30889;DHT22;51092;50.874;7.024;2023-11-21T02:16:29;8.60;99.90
30889;DHT22;51092;50.874;7.024;2023-11-21T02:17:32;8.60;99.90
30889;DHT22;51092;50.874;7.024;2023-11-21T02:18:33;8.60;99.90
30889;DHT22;51092;50.874;7.024;2023-11-21T02:19:35;8.60;99.90
30889;DHT22;51092;50.874;7.024;2023-11-21T02:20:37;8.60;99.90
30889;DHT22;51092;50.874;7.024;2023-11-21T02:21:40;8.60;99.90
30889;DHT22;51092;50.874;7.024;2023-11-21T02:22:42;8.60;99.90
30889;DHT22;51092;50.874;7.024;2023-11-21T02:23:45;8.50;99.90
30889;DHT22;51092;50.874;7.024;2023-11-21T02:24:48;8.50;99.90
30889;DHT22;51092;50.874;7.024;2023-11-21T02:25:49;8.50;99.90
30889;DHT22;51092;50.874;7.024;2023-11-21T02:26:51;8.50;99.90
30889;DHT22;51092;50.874;7.024;2023-11-21T02:27:54;8.50;99.90
30889;DHT22;51092;50.874;7.024;2023-11-21T02:28:56;8.50;99.90
30889;DHT22;51092;50.874;7.024;2023-11-21T02:29:59;8.40;99.90
30889;DHT22;51092;50.874;7.024;2023-11-21T02:31:02;8.40;99.90
30889;DHT22;51092;50.874;7.024;2023-11-21T02:32:06;8.40;99.90
30889;DHT22;51092;50.874;7.024;2023-11-21T02:33:08;8.40;99.90
30889;DHT22;51092;50.874;7.024;2023-11-21T02:34:10;8.40;99.90
30889;DHT22;51092;50.874;7.024;2023-11-21T02:35:14;8.40;99.90
30889;DHT22;51092;50.874;7.024;2023-11-21T02:36:16;8.40;99.90
30889;DHT22;51092;50.874;7.024;2023-11-21T02:37:19;8.30;99.90
30889;DHT22;51092;50.874;7.024;2023-11-21T02:38:21;8.40;99.90
30889;DHT22;51092;50.874;7.024;2023-11-21T02:39:24;8.30;99.90
30889;DHT22;51092;50.874;7.024;2023-11-21T02:40:26;8.30;99.90
30889;DHT22;51092;50.874;7.024;2023-11-21T02:41:29;8.30;99.90
30889;DHT22;51092;50.874;7.024;2023-11-21T02:42:30;8.30;99.90
30889;DHT22;51092;50.874;7.024;2023-11-21T02:43:33;8.30;99.90
30889;DHT22;51092;50.874;7.024;2023-11-21T02:44:35;8.30;99.90
30889;DHT22;51092;50.874;7.024;2023-11-21T02:45:37;8.40;99.90
30889;DHT22;51092;50.874;7.024;2023-11-21T02:46:39;8.30;99.90
30889;DHT22;51092;50.874;7.024;2023-11-21T02:47:41;8.30;99.90
30889;DHT22;51092;50.874;7.024;2023-11-21T02:48:43;8.30;99.90
30889;DHT22;51092;50.874;7.024;2023-11-21T02:49:45;8.40;99.90
30889;DHT22;51092;50.874;7.024;2023-11-21T02:50:47;8.30;99.90
30889;DHT22;51092;50.874;7.024;2023-11-21T02:51:48;8.30;99.90
30889;DHT22;51092;50.874;7.024;2023-11-21T02:52:51;8.30;99.90
30889;DHT22;51092;50.874;7.024;2023-11-21T02:53:52;8.30;99.90
30889;DHT22;51092;50.874;7.024;2023-11-21T02:54:56;8.40;99.90
30889;DHT22;51092;50.874;7.024;2023-11-21T02:55:57;8.30;99.90
30889;DHT22;51092;50.874;7.024;2023-11-21T02:56:59;8.30;99.90
30889;DHT22;51092;50.874;7.024;2023-11-21T02:58:00;8.40;99.90
30889;DHT22;51092;50.874;7.024;2023-11-21T02:59:02;8.40;99.90
30889;DHT22;51092;50.874;7.024;2023-11-21T03:00:05;8.40;99.90
30889;DHT22;51092;50.874;7.024;2023-11-21T03:01:14;8.40;99.90
30889;DHT22;51092;50.874;7.024;2023-11-21T03:02:15;8.40;99.90
30889;DHT22;51092;50.874;7.024;2023-11-21T03:03:18;8.40;99.90
30889;DHT22;51092;50.874;7.024;2023-11-21T03:04:19;8.40;99.90
30889;DHT22;51092;50.874;7.024;2023-11-21T03:05:22;8.40;99.90
30889;DHT22;51092;50.874;7.024;2023-11-21T03:06:24;8.40;99.90
30889;DHT22;51092;50.874;7.024;2023-11-21T03:07:25;8.40;99.90
30889;DHT22;51092;50.874;7.024;2023-11-21T03:08:27;8.50;99.90
30889;DHT22;51092;50.874;7.024;2023-11-21T03:09:29;8.50;99.90
30889;DHT22;51092;50.874;7.024;2023-11-21T03:10:33;8.50;99.90
30889;DHT22;51092;50.874;7.024;2023-11-21T03:11:34;8.50;99.90
30889;DHT22;51092;50.874;7.024;2023-11-21T03:12:37;8.50;99.90
30889;DHT22;51092;50.874;7.024;2023-11-21T03:13:39;8.60;99.90
30889;DHT22;51092;50.874;7.024;2023-11-21T03:14:42;8.60;99.90
30889;DHT22;51092;50.874;7.024;2023-11-21T03:15:43;8.60;99.90
30889;DHT22;51092;50.874;7.024;2023-11-21T03:16:47;8.60;99.90
30889;DHT22;51092;50.874;7.024;2023-11-21T03:17:48;8.60;99.90
30889;DHT22;51092;50.874;7.024;2023-11-21T03:18:51;8.70;99.90
30889;DHT22;51092;50.874;7.024;2023-11-21T03:19:53;8.60;99.90
30889;DHT22;51092;50.874;7.024;2023-11-21T03:20:55;8.60;99.90
30889;DHT22;51092;50.874;7.024;2023-11-21T03:21:58;8.60;99.90
30889;DHT22;51092;50.874;7.024;2023-11-21T03:23:00;8.70;99.90
30889;DHT22;51092;50.874;7.024;2023-11-21T03:24:02;8.70;99.90
30889;DHT22;51092;50.874;7.024;2023-11-21T03:25:05;8.60;99.90
30889;DHT22;51092;50.874;7.024;2023-11-21T03:26:12;8.60;99.90
30889;DHT22;51092;50.874;7.024;2023-11-21T03:27:14;8.50;99.90
30889;DHT22;51092;50.874;7.024;2023-11-21T03:28:16;8.50;99.90
30889;DHT22;51092;50.874;7.024;2023-11-21T03:29:17;8.50;99.90
30889;DHT22;51092;50.874;7.024;2023-11-21T03:30:20;8.50;99.90
30889;DHT22;51092;50.874;7.024;2023-11-21T03:31:22;8.50;99.90
30889;DHT22;51092;50.874;7.024;2023-11-21T03:32:23;8.50;99.90
30889;DHT22;51092;50.874;7.024;2023-11-21T03:33:26;8.50;99.90
30889;DHT22;51092;50.874;7.024;2023-11-21T03:34:28;8.60;99.90
30889;DHT22;51092;50.874;7.024;2023-11-21T03:35:32;8.60;99.90
30889;DHT22;51092;50.874;7.024;2023-11-21T03:36:34;8.60;99.90
30889;DHT22;51092;50.874;7.024;2023-11-21T03:37:35;8.60;99.90
30889;DHT22;51092;50.874;7.024;2023-11-21T03:38:39;8.60;99.90
30889;DHT22;51092;50.874;7.024;2023-11-21T03:39:40;8.70;99.90
30889;DHT22;51092;50.874;7.024;2023-11-21T03:40:42;8.70;99.90
30889;DHT22;51092;50.874;7.024;2023-11-21T03:41:46;8.70;99.90
30889;DHT22;51092;50.874;7.024;2023-11-21T03:42:48;8.70;99.90
30889;DHT22;51092;50.874;7.024;2023-11-21T03:43:51;8.70;99.90
30889;DHT22;51092;50.874;7.024;2023-11-21T03:44:52;8.70;99.90
30889;DHT22;51092;50.874;7.024;2023-11-21T03:45:54;8.70;99.90
30889;DHT22;51092;50.874;7.024;2023-11-21T03:46:56;8.60;99.90
30889;DHT22;51092;50.874;7.024;2023-11-21T03:47:58;8.60;99.90
30889;DHT22;51092;50.874;7.024;2023-11-21T03:49:02;8.70;99.90
30889;DHT22;51092;50.874;7.024;2023-11-21T03:50:05;8.70;99.90
30889;DHT22;51092;50.874;7.024;2023-11-21T03:51:07;8.70;99.90
30889;DHT22;51092;50.874;7.024;2023-11-21T03:52:09;8.70;99.90
30889;DHT22;51092;50.874;7.024;2023-11-21T03:53:11;8.70;99.90
30889;DHT22;51092;50.874;7.024;2023-11-21T03:54:13;8.70;99.90
30889;DHT22;51092;50.874;7.024;2023-11-21T03:55:15;8.70;99.90
30889;DHT22;51092;50.874;7.024;2023-11-21T03:56:18;8.70;99.90
30889;DHT22;51092;50.874;7.024;2023-11-21T03:57:20;8.70;99.90
30889;DHT22;51092;50.874;7.024;2023-11-21T03:58:25;8.70;99.90
30889;DHT22;51092;50.874;7.024;2023-11-21T03:59:26;8.80;99.90
30889;DHT22;51092;50.874;7.024;2023-11-21T04:00:29;8.80;99.90
30889;DHT22;51092;50.874;7.024;2023-11-21T04:01:30;8.80;99.90
30889;DHT22;51092;50.874;7.024;2023-11-21T04:02:33;8.70;99.90
30889;DHT22;51092;50.874;7.024;2023-11-21T04:03:34;8.80;99.90
30889;DHT22;51092;50.874;7.024;2023-11-21T04:04:37;8.80;99.90
30889;DHT22;51092;50.874;7.024;2023-11-21T04:05:38;8.70;99.90
30889;DHT22;51092;50.874;7.024;2023-11-21T04:06:42;8.70;99.90
30889;DHT22;51092;50.874;7.024;2023-11-21T04:07:43;8.70;99.90
30889;DHT22;51092;50.874;7.024;2023-11-21T04:08:46;8.70;99.90
30889;DHT22;51092;50.874;7.024;2023-11-21T04:09:47;8.70;99.90
30889;DHT22;51092;50.874;7.024;2023-11-21T04:10:49;8.80;99.90
30889;DHT22;51092;50.874;7.024;2023-11-21T04:11:51;8.80;99.90
30889;DHT22;51092;50.874;7.024;2023-11-21T04:12:54;8.80;99.90
30889;DHT22;51092;50.874;7.024;2023-11-21T04:13:56;8.80;99.90
30889;DHT22;51092;50.874;7.024;2023-11-21T04:14:57;8.70;99.90
30889;DHT22;51092;50.874;7.024;2023-11-21T04:15:58;8.80;99.90
30889;DHT22;51092;50.874;7.024;2023-11-21T04:17:04;8.70;99.90
30889;DHT22;51092;50.874;7.024;2023-11-21T04:18:05;8.70;99.90
30889;DHT22;51092;50.874;7.024;2023-11-21T04:19:07;8.80;99.90
30889;DHT22;51092;50.874;7.024;2023-11-21T04:20:11;8.80;99.90
30889;DHT22;51092;50.874;7.024;2023-11-21T04:21:14;8.70;99.90
30889;DHT22;51092;50.874;7.024;2023-11-21T04:22:15;8.70;99.90
30889;DHT22;51092;50.874;7.024;2023-11-21T04:23:17;8.70;99.90
30889;DHT22;51092;50.874;7.024;2023-11-21T04:24:19;8.70;99.90
30889;DHT22;51092;50.874;7.024;2023-11-21T04:25:21;8.60;99.90
30889;DHT22;51092;50.874;7.024;2023-11-21T04:26:24;8.60;99.90
30889;DHT22;51092;50.874;7.024;2023-11-21T04:27:25;8.60;99.90
30889;DHT22;51092;50.874;7.024;2023-11-21T04:28:29;8.60;99.90
30889;DHT22;51092;50.874;7.024;2023-11-21T04:29:31;8.60;99.90
30889;DHT22;51092;50.874;7.024;2023-11-21T04:30:33;8.60;99.90
30889;DHT22;51092;50.874;7.024;2023-11-21T04:31:35;8.60;99.90
30889;DHT22;51092;50.874;7.024;2023-11-21T04:32:37;8.60;99.90
30889;DHT22;51092;50.874;7.024;2023-11-21T04:33:40;8.60;99.90
30889;DHT22;51092;50.874;7.024;2023-11-21T04:34:41;8.50;99.90
30889;DHT22;51092;50.874;7.024;2023-11-21T04:35:44;8.60;99.90
30889;DHT22;51092;50.874;7.024;2023-11-21T04:36:45;8.50;99.90
30889;DHT22;51092;50.874;7.024;2023-11-21T04:37:47;8.60;99.90
30889;DHT22;51092;50.874;7.024;2023-11-21T04:38:49;8.60;99.90
30889;DHT22;51092;50.874;7.024;2023-11-21T04:39:50;8.60;99.90
30889;DHT22;51092;50.874;7.024;2023-11-21T04:40:53;8.60;99.90
30889;DHT22;51092;50.874;7.024;2023-11-21T04:41:54;8.60;99.90
30889;DHT22;51092;50.874;7.024;2023-11-21T04:42:57;8.60;99.90
30889;DHT22;51092;50.874;7.024;2023-11-21T04:43:59;8.60;99.90
30889;DHT22;51092;50.874;7.024;2023-11-21T04:45:03;8.60;99.90
30889;DHT22;51092;50.874;7.024;2023-11-21T04:46:09;8.60;99.90
30889;DHT22;51092;50.874;7.024;2023-11-21T04:47:11;8.60;99.90
30889;DHT22;51092;50.874;7.024;2023-11-21T04:48:13;8.60;99.90
30889;DHT22;51092;50.874;7.024;2023-11-21T04:49:17;8.60;99.90
30889;DHT22;51092;50.874;7.024;2023-11-21T04:50:19;8.60;99.90
30889;DHT22;51092;50.874;7.024;2023-11-21T04:51:21;8.60;99.90
30889;DHT22;51092;50.874;7.024;2023-11-21T04:52:22;8.60;99.90
30889;DHT22;51092;50.874;7.024;2023-11-21T04:53:25;8.60;99.90
30889;DHT22;51092;50.874;7.024;2023-11-21T04:54:26;8.50;99.90
30889;DHT22;51092;50.874;7.024;2023-11-21T04:55:29;8.50;99.90
30889;DHT22;51092;50.874;7.024;2023-11-21T04:56:30;8.50;99.90
30889;DHT22;51092;50.874;7.024;2023-11-21T04:57:33;8.50;99.90
30889;DHT22;51092;50.874;7.024;2023-11-21T04:58:34;8.50;99.90
30889;DHT22;51092;50.874;7.024;2023-11-21T04:59:39;8.50;99.90
30889;DHT22;51092;50.874;7.024;2023-11-21T05:00:40;8.50;99.90
30889;DHT22;51092;50.874;7.024;2023-11-21T05:01:42;8.50;99.90
30889;DHT22;51092;50.874;7.024;2023-11-21T05:02:44;8.40;99.90
30889;DHT22;51092;50.874;7.024;2023-11-21T05:03:45;8.40;99.90
30889;DHT22;51092;50.874;7.024;2023-11-21T05:04:47;8.40;99.90
30889;DHT22;51092;50.874;7.024;2023-11-21T05:05:50;8.40;99.90
30889;DHT22;51092;50.874;7.024;2023-11-21T05:06:51;8.50;99.90
30889;DHT22;51092;50.874;7.024;2023-11-21T05:07:54;8.50;99.90
30889;DHT22;51092;50.874;7.024;2023-11-21T05:08:55;8.50;99.90
30889;DHT22;51092;50.874;7.024;2023-11-21T05:09:58;8.50;99.90
30889;DHT22;51092;50.874;7.024;2023-11-21T05:10:59;8.50;99.90
30889;DHT22;51092;50.874;7.024;2023-11-21T05:12:01;8.50;99.90
30889;DHT22;51092;50.874;7.024;2023-11-21T05:13:05;8.50;99.90
30889;DHT22;51092;50.874;7.024;2023-11-21T05:14:11;8.50;99.90
30889;DHT22;51092;50.874;7.024;2023-11-21T05:15:16;8.50;99.90
30889;DHT22;51092;50.874;7.024;2023-11-21T05:16:18;8.50;99.90
30889;DHT22;51092;50.874;7.024;2023-11-21T05:17:20;8.50;99.90
30889;DHT22;51092;50.874;7.024;2023-11-21T05:18:23;8.50;99.90
30889;DHT22;51092;50.874;7.024;2023-11-21T05:19:27;8.50;99.90
30889;DHT22;51092;50.874;7.024;2023-11-21T05:20:30;8.40;99.90
30889;DHT22;51092;50.874;7.024;2023-11-21T05:21:31;8.40;99.90
30889;DHT22;51092;50.874;7.024;2023-11-21T05:22:34;8.40;99.90
30889;DHT22;51092;50.874;7.024;2023-11-21T05:23:35;8.40;99.90
30889;DHT22;51092;50.874;7.024;2023-11-21T05:24:38;8.40;99.90
30889;DHT22;51092;50.874;7.024;2023-11-21T05:25:40;8.40;99.90
30889;DHT22;51092;50.874;7.024;2023-11-21T05:26:43;8.40;99.90
30889;DHT22;51092;50.874;7.024;2023-11-21T05:27:45;8.40;99.90
30889;DHT22;51092;50.874;7.024;2023-11-21T05:28:47;8.40;99.90
30889;DHT22;51092;50.874;7.024;2023-11-21T05:29:49;8.40;99.90
30889;DHT22;51092;50.874;7.024;2023-11-21T05:30:51;8.40;99.90
30889;DHT22;51092;50.874;7.024;2023-11-21T05:31:54;8.50;99.90
30889;DHT22;51092;50.874;7.024;2023-11-21T05:32:58;8.40;99.90
30889;DHT22;51092;50.874;7.024;2023-11-21T05:34:01;8.50;99.90
30889;DHT22;51092;50.874;7.024;2023-11-21T05:35:02;8.50;99.90
30889;DHT22;51092;50.874;7.024;2023-11-21T05:36:04;8.50;99.90
30889;DHT22;51092;50.874;7.024;2023-11-21T05:37:09;8.50;99.90
30889;DHT22;51092;50.874;7.024;2023-11-21T05:38:10;8.60;99.90
30889;DHT22;51092;50.874;7.024;2023-11-21T05:39:13;8.60;99.90
30889;DHT22;51092;50.874;7.024;2023-11-21T05:40:15;8.60;99.90
30889;DHT22;51092;50.874;7.024;2023-11-21T05:41:17;8.50;99.90
30889;DHT22;51092;50.874;7.024;2023-11-21T05:42:19;8.50;99.90
30889;DHT22;51092;50.874;7.024;2023-11-21T05:43:22;8.50;99.90
30889;DHT22;51092;50.874;7.024;2023-11-21T05:44:23;8.50;99.90
30889;DHT22;51092;50.874;7.024;2023-11-21T05:45:26;8.50;99.90
30889;DHT22;51092;50.874;7.024;2023-11-21T05:46:28;8.40;99.90
30889;DHT22;51092;50.874;7.024;2023-11-21T05:47:31;8.40;99.90
30889;DHT22;51092;50.874;7.024;2023-11-21T05:48:32;8.40;99.90
30889;DHT22;51092;50.874;7.024;2023-11-21T05:49:35;8.40;99.90
30889;DHT22;51092;50.874;7.024;2023-11-21T05:50:36;8.40;99.90
30889;DHT22;51092;50.874;7.024;2023-11-21T05:51:42;8.40;99.90
30889;DHT22;51092;50.874;7.024;2023-11-21T05:52:44;8.40;99.90
30889;DHT22;51092;50.874;7.024;2023-11-21T05:53:45;8.40;99.90
30889;DHT22;51092;50.874;7.024;2023-11-21T05:54:47;8.40;99.90
30889;DHT22;51092;50.874;7.024;2023-11-21T05:55:48;8.40;99.90
30889;DHT22;51092;50.874;7.024;2023-11-21T05:56:50;8.40;99.90
30889;DHT22;51092;50.874;7.024;2023-11-21T05:57:52;8.40;99.90
30889;DHT22;51092;50.874;7.024;2023-11-21T05:58:53;8.30;99.90
30889;DHT22;51092;50.874;7.024;2023-11-21T05:59:56;8.40;99.90
30889;DHT22;51092;50.874;7.024;2023-11-21T06:00:56;8.40;99.90
30889;DHT22;51092;50.874;7.024;2023-11-21T06:02:00;8.40;99.90
30889;DHT22;51092;50.874;7.024;2023-11-21T06:03:03;8.40;99.90
30889;DHT22;51092;50.874;7.024;2023-11-21T06:04:07;8.40;99.90
30889;DHT22;51092;50.874;7.024;2023-11-21T06:05:10;8.40;99.90
30889;DHT22;51092;50.874;7.024;2023-11-21T06:06:13;8.40;99.90
30889;DHT22;51092;50.874;7.024;2023-11-21T06:07:14;8.40;99.90
30889;DHT22;51092;50.874;7.024;2023-11-21T06:08:16;8.40;99.90
30889;DHT22;51092;50.874;7.024;2023-11-21T06:09:18;8.40;99.90
30889;DHT22;51092;50.874;7.024;2023-11-21T06:10:22;8.40;99.90
30889;DHT22;51092;50.874;7.024;2023-11-21T06:11:24;8.50;99.90
30889;DHT22;51092;50.874;7.024;2023-11-21T06:12:27;8.60;99.90
30889;DHT22;51092;50.874;7.024;2023-11-21T06:13:28;8.50;99.90
30889;DHT22;51092;50.874;7.024;2023-11-21T06:14:31;8.50;99.90
30889;DHT22;51092;50.874;7.024;2023-11-21T06:15:34;8.60;99.90
30889;DHT22;51092;50.874;7.024;2023-11-21T06:16:37;8.60;99.90
30889;DHT22;51092;50.874;7.024;2023-11-21T06:17:40;8.60;99.90
30889;DHT22;51092;50.874;7.024;2023-11-21T06:18:43;8.60;99.90
30889;DHT22;51092;50.874;7.024;2023-11-21T06:19:44;8.60;99.90
30889;DHT22;51092;50.874;7.024;2023-11-21T06:20:47;8.60;99.90
30889;DHT22;51092;50.874;7.024;2023-11-21T06:21:48;8.60;99.90
30889;DHT22;51092;50.874;7.024;2023-11-21T06:22:51;8.60;99.90
30889;DHT22;51092;50.874;7.024;2023-11-21T06:23:53;8.60;99.90
30889;DHT22;51092;50.874;7.024;2023-11-21T06:24:58;8.50;99.90
30889;DHT22;51092;50.874;7.024;2023-11-21T06:25:59;8.50;99.90
30889;DHT22;51092;50.874;7.024;2023-11-21T06:27:03;8.50;99.90
30889;DHT22;51092;50.874;7.024;2023-11-21T06:28:06;8.40;99.90
30889;DHT22;51092;50.874;7.024;2023-11-21T06:29:08;8.40;99.90
30889;DHT22;51092;50.874;7.024;2023-11-21T06:30:10;8.50;99.90
30889;DHT22;51092;50.874;7.024;2023-11-21T06:31:13;8.50;99.90
30889;DHT22;51092;50.874;7.024;2023-11-21T06:32:15;8.50;99.90
30889;DHT22;51092;50.874;7.024;2023-11-21T06:33:19;8.40;99.90
30889;DHT22;51092;50.874;7.024;2023-11-21T06:34:20;8.40;99.90
30889;DHT22;51092;50.874;7.024;2023-11-21T06:35:23;8.40;99.90
30889;DHT22;51092;50.874;7.024;2023-11-21T06:36:24;8.40;99.90
30889;DHT22;51092;50.874;7.024;2023-11-21T06:37:28;8.40;99.90
30889;DHT22;51092;50.874;7.024;2023-11-21T06:38:29;8.40;99.90
30889;DHT22;51092;50.874;7.024;2023-11-21T06:39:33;8.50;99.90
30889;DHT22;51092;50.874;7.024;2023-11-21T06:40:34;8.50;99.90